createdAt,value
2019-03-29T00:00:51.779Z,34.47
2019-03-29T00:03:20.689Z,37.33
2019-03-29T00:05:49.577Z,37.63
2019-03-29T00:08:57.758Z,37.77
2019-03-29T00:11:26.963Z,34.23
2019-03-29T00:14:00.389Z,38.63
2019-03-29T00:16:59.957Z,34.87
2019-03-29T00:19:28.842Z,34.93
2019-03-29T00:21:57.732Z,39.73
2019-03-29T00:24:26.636Z,37.70
2019-03-29T00:26:55.784Z,37.47
2019-03-29T00:30:19.093Z,38.07
2019-03-29T00:32:48.026Z,41.07
2019-03-29T00:35:16.970Z,37.60
2019-03-29T00:37:53.529Z,32.33
2019-03-29T00:40:16.793Z,33.53
2019-03-29T00:42:45.781Z,40.17
2019-03-29T00:45:15.540Z,36.77
2019-03-29T00:47:47.682Z,37.87
2019-03-29T00:50:16.837Z,31.93
2019-03-29T00:52:45.702Z,38.50
2019-03-29T00:55:14.644Z,38.70
2019-03-29T00:57:43.968Z,35.00
2019-03-29T01:00:12.954Z,38.77
2019-03-29T01:02:42.078Z,38.90
2019-03-29T01:05:11.184Z,40.17
2019-03-29T01:07:40.347Z,37.77
2019-03-29T01:10:09.322Z,37.07
2019-03-29T01:12:38.310Z,33.77
2019-03-29T01:15:09.128Z,40.15
2019-03-29T01:17:38.691Z,36.80
2019-03-29T01:20:08.291Z,40.07
2019-03-29T01:22:39.099Z,38.37
2019-03-29T01:25:08.642Z,40.90
2019-03-29T01:27:37.712Z,39.95
2019-03-29T01:30:08.194Z,36.63
2019-03-29T01:32:37.124Z,36.53
2019-03-29T01:35:09.069Z,36.27
2019-03-29T01:37:39.819Z,39.63
2019-03-29T01:40:10.462Z,41.08
2019-03-29T01:42:41.735Z,38.70
2019-03-29T01:45:13.217Z,36.33
2019-03-29T01:47:43.607Z,37.75
2019-03-29T01:50:17.093Z,36.33
2019-03-29T01:52:46.004Z,39.00
2019-03-29T01:55:15.381Z,35.37
2019-03-29T01:57:44.314Z,35.08
2019-03-29T02:00:16.298Z,35.40
2019-03-29T02:02:46.215Z,36.10
2019-03-29T02:05:17.408Z,34.23
2019-03-29T02:07:46.293Z,37.53
2019-03-29T02:10:15.491Z,38.63
2019-03-29T02:12:44.362Z,36.88
2019-03-29T02:15:15.199Z,38.53
2019-03-29T02:17:48.370Z,40.63
2019-03-29T02:20:17.470Z,36.20
2019-03-29T02:22:46.358Z,39.05
2019-03-29T02:25:16.104Z,35.98
2019-03-29T02:27:45.416Z,37.67
2019-03-29T02:30:15.908Z,32.63
2019-03-29T02:32:44.807Z,36.03
2019-03-29T02:35:13.675Z,37.28
2019-03-29T02:37:42.707Z,40.20
2019-03-29T02:40:11.997Z,36.90
2019-03-29T02:42:42.766Z,41.20
2019-03-29T02:45:11.653Z,36.58
2019-03-29T02:47:40.547Z,37.55
2019-03-29T02:50:10.279Z,36.77
2019-03-29T02:52:39.204Z,36.60
2019-03-29T02:55:08.288Z,36.55
2019-03-29T02:57:40.821Z,36.68
2019-03-29T03:00:12.917Z,37.10
2019-03-29T03:02:44.556Z,37.78
2019-03-29T03:05:14.116Z,40.55
2019-03-29T03:07:43.179Z,39.83
2019-03-29T03:10:12.498Z,40.33
2019-03-29T03:12:41.455Z,38.70
2019-03-29T03:15:10.970Z,37.73
2019-03-29T03:17:40.164Z,34.53
2019-03-29T03:20:15.452Z,41.18
2019-03-29T03:22:44.042Z,36.08
2019-03-29T03:25:15.650Z,43.85
2019-03-29T03:27:44.938Z,38.78
2019-03-29T03:30:14.560Z,34.70
2019-03-29T03:32:46.469Z,36.90
2019-03-29T03:35:15.597Z,33.85
2019-03-29T03:37:44.507Z,35.60
2019-03-29T03:40:19.349Z,38.13
2019-03-29T03:42:48.269Z,37.40
2019-03-29T03:45:17.202Z,36.40
2019-03-29T03:47:46.373Z,36.40
2019-03-29T03:50:37.821Z,35.28
2019-03-29T03:53:07.237Z,37.08
2019-03-29T03:55:40.467Z,36.85
2019-03-29T03:58:10.562Z,37.58
2019-03-29T04:00:54.255Z,33.65
2019-03-29T04:03:23.532Z,33.55
2019-03-29T04:05:52.587Z,35.45
2019-03-29T04:08:24.589Z,36.77
2019-03-29T04:10:55.123Z,33.98
2019-03-29T04:13:24.580Z,35.43
2019-03-29T04:15:53.471Z,37.60
2019-03-29T04:18:22.379Z,34.45
2019-03-29T04:20:51.659Z,38.65
2019-03-29T04:23:20.580Z,41.80
2019-03-29T04:25:49.564Z,37.73
2019-03-29T04:28:18.510Z,33.38
2019-03-29T04:30:47.384Z,32.23
2019-03-29T04:33:16.503Z,40.23
2019-03-29T04:35:46.937Z,34.65
2019-03-29T04:38:15.834Z,33.73
2019-03-29T04:40:44.823Z,35.88
2019-03-29T04:43:13.765Z,35.35
2019-03-29T04:45:42.849Z,33.38
2019-03-29T04:48:12.191Z,38.30
2019-03-29T04:50:41.255Z,34.80
2019-03-29T04:53:10.309Z,33.28
2019-03-29T04:55:39.231Z,32.35
2019-03-29T04:58:08.083Z,34.95
2019-03-29T05:00:37.049Z,33.67
2019-03-29T05:03:05.892Z,33.88
2019-03-29T05:05:35.106Z,38.02
2019-03-29T05:08:04.163Z,33.25
2019-03-29T05:10:33.378Z,33.80
2019-03-29T05:13:02.253Z,34.50
2019-03-29T05:15:31.129Z,34.27
2019-03-29T05:18:00.069Z,35.70
2019-03-29T05:20:28.978Z,30.75
2019-03-29T05:22:57.918Z,30.17
2019-03-29T05:28:00.077Z,34.03
2019-03-29T05:30:29.268Z,33.67
2019-03-29T05:32:58.371Z,37.65
2019-03-29T05:35:27.378Z,32.40
2019-03-29T05:37:56.242Z,34.67
2019-03-29T05:40:34.802Z,31.85
2019-03-29T05:42:56.196Z,36.08
2019-03-29T05:45:25.216Z,32.25
2019-03-29T05:47:55.230Z,35.50
2019-03-29T05:50:24.135Z,37.63
2019-03-29T05:52:58.254Z,40.48
2019-03-29T05:55:32.954Z,36.98
2019-03-29T05:57:58.491Z,34.33
2019-03-29T06:00:28.459Z,35.28
2019-03-29T06:02:58.358Z,36.73
2019-03-29T06:05:49.136Z,30.57
2019-03-29T06:08:18.509Z,37.00
2019-03-29T06:10:49.308Z,29.50
2019-03-29T06:13:18.334Z,30.82
2019-03-29T06:15:47.669Z,33.27
2019-03-29T06:18:17.372Z,33.80
2019-03-29T06:20:50.086Z,30.00
2019-03-29T06:23:22.751Z,30.83
2019-03-29T06:25:53.035Z,24.32
2019-03-29T06:28:25.537Z,28.60
2019-03-29T06:30:54.573Z,29.10
2019-03-29T06:33:25.396Z,29.97
2019-03-29T06:35:56.680Z,28.80
2019-03-29T06:38:29.450Z,27.17
2019-03-29T06:41:03.131Z,29.93
2019-03-29T06:43:33.316Z,24.10
2019-03-29T06:46:05.699Z,27.47
2019-03-29T06:48:34.626Z,32.07
2019-03-29T06:51:05.379Z,33.43
2019-03-29T06:53:34.635Z,35.58
2019-03-29T06:56:05.239Z,31.87
2019-03-29T06:58:38.111Z,28.93
2019-03-29T07:01:07.014Z,33.00
2019-03-29T07:03:38.871Z,28.77
2019-03-29T07:06:08.081Z,31.17
2019-03-29T07:08:45.150Z,29.80
2019-03-29T07:11:17.809Z,32.07
2019-03-29T07:13:57.241Z,30.73
2019-03-29T07:16:19.181Z,31.43
2019-03-29T07:18:51.768Z,26.73
2019-03-29T07:21:22.190Z,29.80
2019-03-29T07:23:51.811Z,30.17
2019-03-29T07:26:26.176Z,33.45
2019-03-29T07:28:56.442Z,28.70
2019-03-29T07:31:31.135Z,28.77
2019-03-29T07:34:01.581Z,28.87
2019-03-29T07:36:33.714Z,26.03
2019-03-29T07:39:03.321Z,30.77
2019-03-29T07:41:33.404Z,28.70
2019-03-29T07:44:09.172Z,30.02
2019-03-29T07:46:38.094Z,22.93
2019-03-29T07:49:18.659Z,26.85
2019-03-29T07:51:54.305Z,25.73
2019-03-29T07:54:24.565Z,22.70
2019-03-29T07:56:53.770Z,23.63
2019-03-29T07:59:26.743Z,24.07
2019-03-29T08:02:02.938Z,26.07
2019-03-29T08:04:36.832Z,22.53
2019-03-29T08:07:11.453Z,23.00
2019-03-29T08:09:41.287Z,20.80
2019-03-29T08:12:12.034Z,23.47
2019-03-29T08:14:46.885Z,22.55
2019-03-29T08:17:21.695Z,24.43
2019-03-29T08:20:24.615Z,21.10
2019-03-29T08:22:31.564Z,18.73
2019-03-29T08:25:08.347Z,18.17
2019-03-29T09:21:45.944Z,9.10
2019-03-29T09:24:22.401Z,10.10
2019-03-29T09:26:47.696Z,9.90
2019-03-29T09:29:22.016Z,11.00
2019-03-29T09:31:51.843Z,10.95
2019-03-29T09:34:24.186Z,10.83
2019-03-29T09:36:59.883Z,9.60
2019-03-29T09:39:30.344Z,8.60
2019-03-29T09:42:02.674Z,6.63
2019-03-29T09:44:40.936Z,6.27
2019-03-29T09:47:11.389Z,12.23
2019-03-29T09:49:44.895Z,11.30
2019-03-29T09:52:16.439Z,6.20
2019-03-29T09:54:48.247Z,7.20
2019-03-29T09:57:36.946Z,6.40
2019-03-29T09:59:57.983Z,6.03
2019-03-29T10:02:29.675Z,7.53
2019-03-29T10:05:05.849Z,6.30
2019-03-29T10:07:36.616Z,6.67
2019-03-29T10:10:12.149Z,6.10
2019-03-29T10:12:43.709Z,6.73
2019-03-29T10:15:15.470Z,5.77
2019-03-29T10:17:46.534Z,7.83
2019-03-29T10:20:26.535Z,6.47
2019-03-29T10:22:59.112Z,6.53
2019-03-29T10:25:32.656Z,6.50
2019-03-29T10:28:03.802Z,8.33
2019-03-29T10:30:41.053Z,6.87
2019-03-29T10:33:13.061Z,5.27
2019-03-29T10:35:52.018Z,5.53
2019-03-29T10:38:18.411Z,4.70
2019-03-29T10:40:56.270Z,5.57
2019-03-29T10:43:22.789Z,4.93
2019-03-29T10:45:52.569Z,6.13
2019-03-29T10:48:25.910Z,4.92
2019-03-29T10:50:55.004Z,5.50
2019-03-29T10:53:24.240Z,4.50
2019-03-29T10:55:54.790Z,5.50
2019-03-29T10:58:26.708Z,4.53
2019-03-29T11:00:59.578Z,3.00
2019-03-29T11:03:31.788Z,3.00
2019-03-29T11:06:01.177Z,2.57
2019-03-29T11:08:32.624Z,2.97
2019-03-29T11:11:01.998Z,6.27
2019-03-29T11:13:34.938Z,4.25
2019-03-29T11:16:05.848Z,2.47
2019-03-29T11:18:36.037Z,2.80
2019-03-29T11:21:06.044Z,6.30
2019-03-29T11:23:35.878Z,2.83
2019-03-29T11:26:05.323Z,2.75
2019-03-29T11:28:34.559Z,3.70
2019-03-29T11:31:04.497Z,2.87
2019-03-29T11:33:35.379Z,2.55
2019-03-29T11:36:07.655Z,2.90
2019-03-29T11:38:37.601Z,3.23
2019-03-29T11:41:07.958Z,3.20
2019-03-29T11:43:37.280Z,4.03
2019-03-29T11:46:09.661Z,4.10
2019-03-29T11:48:38.851Z,2.63
2019-03-29T11:51:19.331Z,4.13
2019-03-29T11:53:43.960Z,4.30
2019-03-29T11:56:23.105Z,3.40
2019-03-29T11:58:52.855Z,3.50
2019-03-29T12:01:25.305Z,4.47
2019-03-29T12:04:09.866Z,4.43
2019-03-29T12:06:39.205Z,3.80
2019-03-29T12:09:32.404Z,4.60
2019-03-29T12:12:01.563Z,3.33
2019-03-29T12:15:12.253Z,3.03
2019-03-29T12:17:43.526Z,4.40
2019-03-29T12:21:03.513Z,3.00
2019-03-29T12:23:33.164Z,3.13
2019-03-29T12:26:05.631Z,4.07
2019-03-29T12:28:34.693Z,2.10
2019-03-29T12:31:04.298Z,4.27
2019-03-29T12:34:26.333Z,4.23
2019-03-29T12:36:57.155Z,3.03
2019-03-29T12:40:10.898Z,2.27
2019-03-29T12:42:46.317Z,4.60
2019-03-29T12:45:49.896Z,4.37
2019-03-29T12:48:19.287Z,3.37
2019-03-29T12:51:21.522Z,4.80
2019-03-29T12:53:50.525Z,5.20
2019-03-29T12:56:57.167Z,4.97
2019-03-29T12:59:26.464Z,4.90
2019-03-29T13:02:47.616Z,3.93
2019-03-29T13:05:16.879Z,4.53
2019-03-29T13:08:34.633Z,5.83
2019-03-29T13:11:04.339Z,5.50
2019-03-29T13:14:12.153Z,5.30
2019-03-29T13:16:41.181Z,4.93
2019-03-29T13:19:38.943Z,7.10
2019-03-29T13:22:08.184Z,6.00
2019-03-29T13:25:29.225Z,7.60
2019-03-29T13:27:59.584Z,8.53
2019-03-29T13:31:22.194Z,6.57
2019-03-29T13:33:51.455Z,6.40
2019-03-29T13:50:25.467Z,6.33
2019-03-29T13:52:57.429Z,5.53
2019-03-29T13:55:32.580Z,6.80
2019-03-29T13:58:05.534Z,5.63
2019-03-29T14:00:37.132Z,5.70
2019-03-29T14:03:40.361Z,7.60
2019-03-29T14:06:09.341Z,6.93
2019-03-29T14:09:18.055Z,7.43
2019-03-29T14:11:46.953Z,6.83
2019-03-29T14:14:16.493Z,7.77
2019-03-29T14:16:45.631Z,7.93
2019-03-29T14:19:14.560Z,8.37
2019-03-29T14:22:13.469Z,8.60
2019-03-29T14:24:45.803Z,4.83
2019-03-29T14:28:01.873Z,10.47
2019-03-29T14:30:38.487Z,6.73
2019-03-29T14:34:01.235Z,8.90
2019-03-29T14:36:30.384Z,5.83
2019-03-29T15:03:11.839Z,5.93
2019-03-29T15:05:42.028Z,6.60
2019-03-29T15:08:50.983Z,5.47
2019-03-29T15:11:22.935Z,6.40
2019-03-29T15:14:33.785Z,6.63
2019-03-29T15:17:09.863Z,5.47
2019-03-29T15:20:05.672Z,7.80
2019-03-29T15:22:34.849Z,9.57
2019-03-29T15:25:40.449Z,5.63
2019-03-29T15:28:09.194Z,5.83
2019-03-29T15:31:10.803Z,5.23
2019-03-29T15:33:42.864Z,7.67
2019-03-29T15:36:55.705Z,6.33
2019-03-29T15:39:24.689Z,4.20
2019-03-29T15:42:31.735Z,5.07
2019-03-29T15:45:01.974Z,7.00
2019-03-29T15:54:43.876Z,8.17
2019-03-29T15:57:15.627Z,6.47
2019-03-29T16:00:28.856Z,6.23
2019-03-29T16:03:08.391Z,6.20
2019-03-29T16:06:03.247Z,5.77
2019-03-29T16:08:32.860Z,5.20
2019-03-29T16:11:43.076Z,5.90
2019-03-29T16:14:12.167Z,5.97
2019-03-29T16:17:26.333Z,4.03
2019-03-29T16:19:58.251Z,5.40
2019-03-29T16:22:59.951Z,7.43
2019-03-29T16:25:31.989Z,5.10
2019-03-29T16:28:45.404Z,7.37
2019-03-29T16:31:17.141Z,5.83
2019-03-29T16:34:28.902Z,5.10
2019-03-29T16:37:00.574Z,4.80
2019-03-29T16:39:29.981Z,7.73
2019-03-29T16:41:59.019Z,5.97
2019-03-29T16:44:31.835Z,4.77
2019-03-29T16:47:42.635Z,4.20
2019-03-29T16:50:12.060Z,4.90
2019-03-29T16:53:06.314Z,9.03
2019-03-29T16:55:38.661Z,4.10
2019-03-29T17:04:51.622Z,5.63
2019-03-29T17:07:20.945Z,5.17
2019-03-29T17:09:50.236Z,4.40
2019-03-29T17:12:22.877Z,7.00
2019-03-29T17:14:54.389Z,5.47
2019-03-29T17:18:14.592Z,8.33
2019-03-29T17:20:49.708Z,4.70
2019-03-29T17:23:54.744Z,3.77
2019-03-29T17:26:27.190Z,4.67
2019-03-29T17:29:34.940Z,4.87
2019-03-29T17:32:08.706Z,4.37
2019-03-29T17:35:14.549Z,5.87
2019-03-29T17:37:45.939Z,6.37
2019-03-29T17:40:56.117Z,5.83
2019-03-29T17:43:25.223Z,6.53
2019-03-29T17:46:27.474Z,5.63
2019-03-29T17:48:59.403Z,6.00
2019-03-29T18:05:16.553Z,5.40
2019-03-29T18:08:34.469Z,3.57
2019-03-29T18:11:07.043Z,4.87
2019-03-29T18:14:03.173Z,3.93
2019-03-29T18:19:34.181Z,3.50
2019-03-29T18:22:05.192Z,4.87
2019-03-29T18:24:38.929Z,8.60
2019-03-29T18:27:08.070Z,7.10
2019-03-29T18:29:40.054Z,7.13
2019-03-29T18:52:31.181Z,5.70
2019-03-29T18:55:01.684Z,6.17
2019-03-29T19:05:02.234Z,4.73
2019-03-29T19:07:42.754Z,8.03
2019-03-29T19:10:17.103Z,7.97
2019-03-29T19:12:50.216Z,9.13
2019-03-29T19:15:22.487Z,7.03
2019-03-29T19:18:27.305Z,9.17
2019-03-29T19:21:02.508Z,9.30
2019-03-29T19:24:36.355Z,7.87
2019-03-29T19:27:28.673Z,8.63
2019-03-29T19:30:40.669Z,6.97
2019-03-29T19:33:12.784Z,8.70
2019-03-29T19:42:39.194Z,6.50
2019-03-29T19:45:11.806Z,7.93
2019-03-29T20:01:13.083Z,8.83
2019-03-29T20:03:44.603Z,8.47
2019-03-29T20:13:50.480Z,7.60
2019-03-29T20:23:26.502Z,7.37
2019-03-29T20:25:55.833Z,7.97
2019-03-29T20:29:10.090Z,7.23
2019-03-29T20:31:39.008Z,9.23
2019-03-29T20:35:06.436Z,8.00
2019-03-29T20:37:32.868Z,7.40
2019-03-29T20:40:46.815Z,7.33
2019-03-29T20:43:17.349Z,7.57
2019-03-29T20:46:11.482Z,6.10
2019-03-29T20:48:45.251Z,7.17
2019-03-29T20:52:42.793Z,9.20
2019-03-29T20:54:29.609Z,7.13
2019-03-29T21:03:57.834Z,7.10
2019-03-29T21:06:30.571Z,7.07
2019-03-29T21:09:45.418Z,7.27
2019-03-29T21:12:14.738Z,7.40
2019-03-29T21:15:26.591Z,6.80
2019-03-29T21:18:00.952Z,8.93
2019-03-29T21:38:27.888Z,9.17
2019-03-29T21:40:59.943Z,8.37
2019-03-29T21:44:16.443Z,7.20
2019-03-29T21:46:45.363Z,7.70
2019-03-29T21:49:53.493Z,6.40
2019-03-29T21:52:24.133Z,7.03
2019-03-29T21:55:44.893Z,6.83
2019-03-29T21:58:20.723Z,5.70
2019-03-29T22:07:53.948Z,6.37
2019-03-29T22:10:23.900Z,8.13
2019-03-29T22:12:53.020Z,8.37
2019-03-29T22:16:17.137Z,8.13
2019-03-29T22:18:48.327Z,7.70
2019-03-29T22:28:29.879Z,12.53
2019-03-29T22:31:01.925Z,6.73
2019-03-29T22:40:58.806Z,8.67
2019-03-29T22:43:31.213Z,10.80
2019-03-29T22:46:01.868Z,8.43
2019-03-29T22:48:52.276Z,8.97
2019-03-29T22:51:15.693Z,17.03
2019-03-29T22:54:29.871Z,18.07
2019-03-29T22:56:59.793Z,11.90
2019-03-29T23:00:10.277Z,12.10
2019-03-29T23:02:39.358Z,7.07
2019-03-29T23:06:00.779Z,10.90
2019-03-29T23:08:29.874Z,13.80
2019-03-29T23:11:33.491Z,14.83
2019-03-29T23:14:02.489Z,11.63
2019-03-29T23:17:08.961Z,11.20
2019-03-29T23:19:37.833Z,11.07
2019-03-29T23:22:55.051Z,8.97
2019-03-29T23:25:24.208Z,7.00
2019-03-29T23:28:29.031Z,8.33
2019-03-29T23:30:57.976Z,7.10
2019-03-29T23:34:01.084Z,6.33
2019-03-29T23:36:35.620Z,9.83
2019-03-29T23:39:40.592Z,9.63
2019-03-29T23:42:13.978Z,9.43
2019-03-29T23:45:09.910Z,11.83
2019-03-29T23:47:38.817Z,9.47
2019-03-29T23:50:56.235Z,9.90
2019-03-29T23:53:25.262Z,9.40
2019-03-29T23:56:36.034Z,9.80
2019-03-29T23:59:05.124Z,9.67
